Time;durP1;ratioP1;P1;durP2;ratioP2;P2;SDS_P1;SDS_P2;PMS_P1;PMS_P2;Temp;Humidity;BMP_temperature;BMP_pressure;BME280_temperature;BME280_humidity;BME280_pressure;Samples;Min_cycle;Max_cycle;Signal;HPM_P1;HPM_P2
2022/11/21 00:00:45;;;;;;;4.30;2.90;;;16.20;67.20;17.60;99568.00;;;;5051644;28;20170;-50
2022/11/21 00:03:10;;;;;;;3.20;2.80;;;16.20;67.40;17.50;99586.00;;;;5051110;28;20190;-51
2022/11/21 00:05:42;;;;;;;3.20;2.60;;;16.20;67.50;17.50;99574.00;;;;5051318;28;20188;-52
2022/11/21 00:08:09;;;;;;;3.20;2.63;;;16.20;67.60;17.50;99577.00;;;;5068917;28;20165;-51
2022/11/21 00:10:35;;;;;;;3.73;3.00;;;16.20;67.20;17.50;99583.00;;;;5069366;28;20167;-50
2022/11/21 00:13:01;;;;;;;4.90;3.10;;;16.20;67.30;17.50;99581.00;;;;5068779;28;20653;-49
2022/11/21 00:15:26;;;;;;;3.10;2.77;;;16.10;67.80;17.50;99574.00;;;;5051171;28;20247;-51
2022/11/21 00:17:52;;;;;;;4.50;2.90;;;16.20;68.00;17.50;99585.00;;;;5067941;28;20323;-52
2022/11/21 00:20:19;;;;;;;3.27;2.70;;;16.20;68.00;17.40;99581.00;;;;5068901;28;20185;-50
2022/11/21 00:22:45;;;;;;;3.17;2.70;;;16.10;67.40;17.40;99597.00;;;;5068709;28;20205;-50
2022/11/21 00:25:11;;;;;;;3.00;2.60;;;16.10;67.70;17.40;99597.00;;;;5034106;28;20194;-51
2022/11/21 00:27:36;;;;;;;3.00;2.70;;;16.00;67.80;17.40;99598.00;;;;5068774;28;20172;-51
2022/11/21 00:30:04;;;;;;;3.93;2.93;;;16.10;67.80;17.40;99602.00;;;;5068866;28;20646;-49
2022/11/21 00:32:30;;;;;;;3.60;2.70;;;16.10;67.80;17.40;99606.00;;;;5068436;28;20837;-49
2022/11/21 00:34:56;;;;;;;3.70;2.50;;;16.10;67.90;17.40;99608.00;;;;5050937;28;20239;-50
2022/11/21 00:37:21;;;;;;;3.33;2.50;;;16.10;67.90;17.40;99605.00;;;;5068468;28;20170;-49
2022/11/21 00:39:47;;;;;;;3.13;2.60;;;16.10;67.50;17.40;99603.00;;;;5068327;28;20252;-49
2022/11/21 00:42:13;;;;;;;2.80;2.50;;;16.10;67.50;17.40;99601.00;;;;5068357;28;20197;-50
2022/11/21 00:44:39;;;;;;;3.93;2.73;;;16.10;67.30;17.40;99613.00;;;;5068554;28;20219;-49
2022/11/21 00:47:04;;;;;;;2.60;2.40;;;16.10;67.30;17.30;99609.00;;;;5068305;28;20261;-50
2022/11/21 00:49:30;;;;;;;3.10;2.80;;;16.10;67.30;17.30;99603.00;;;;5068600;28;20198;-50
2022/11/21 00:51:56;;;;;;;3.33;2.90;;;16.10;67.40;17.30;99604.00;;;;5050499;28;20247;-49
2022/11/21 00:54:21;;;;;;;3.30;2.60;;;16.10;67.40;17.30;99611.00;;;;5068382;28;20596;-50
2022/11/21 00:56:47;;;;;;;4.00;2.50;;;16.10;67.30;17.30;99610.00;;;;5068371;28;20261;-50
2022/11/21 00:59:13;;;;;;;3.53;2.70;;;16.10;67.40;17.30;99617.00;;;;5068034;28;20236;-49
2022/11/21 01:01:38;;;;;;;2.97;2.50;;;16.10;67.30;17.30;99606.00;;;;5067939;28;20200;-49
2022/11/21 01:04:04;;;;;;;3.30;2.60;;;16.10;67.30;17.30;99614.00;;;;5068243;28;20193;-49
2022/11/21 01:06:30;;;;;;;3.00;2.50;;;16.10;67.30;17.30;99616.00;;;;5067957;28;20557;-50
2022/11/21 01:08:56;;;;;;;3.17;2.60;;;16.10;67.20;17.30;99623.00;;;;5068234;28;20219;-50
2022/11/21 01:11:22;;;;;;;2.90;2.50;;;16.10;67.20;17.30;99621.00;;;;5068329;28;20643;-51
2022/11/21 01:13:48;;;;;;;3.13;2.50;;;16.00;67.20;17.20;99617.00;;;;5068350;28;20650;-51
2022/11/21 01:16:16;;;;;;;3.27;2.70;;;16.10;67.30;17.30;99614.00;;;;5068269;28;20523;-50
2022/11/21 01:18:42;;;;;;;2.80;2.50;;;16.00;67.20;17.20;99626.00;;;;5068439;28;20165;-49
2022/11/21 01:21:14;;;;;;;3.43;2.70;;;16.10;67.20;17.20;99622.00;;;;5068090;28;20540;-52
2022/11/21 01:23:40;;;;;;;3.37;2.67;;;16.00;67.20;17.20;99622.00;;;;5068388;28;20165;-50
2022/11/21 01:26:10;;;;;;;3.43;2.43;;;16.00;67.40;17.20;99620.00;;;;5067847;28;20190;-51
2022/11/21 01:28:36;;;;;;;3.00;2.70;;;16.00;67.30;17.20;99616.00;;;;5051278;28;20165;-50
2022/11/21 01:31:06;;;;;;;3.53;2.43;;;16.00;67.30;17.20;99628.00;;;;5072002;28;20189;-50
2022/11/21 01:33:32;;;;;;;2.90;2.60;;;16.00;67.40;17.20;99629.00;;;;5071865;28;20182;-49
2022/11/21 01:36:06;;;;;;;3.13;2.60;;;16.00;67.30;17.10;99630.00;;;;5071980;28;20800;-50
2022/11/21 01:38:32;;;;;;;2.90;2.63;;;15.90;67.20;17.10;99631.00;;;;5072403;28;20173;-50
2022/11/21 01:40:58;;;;;;;2.97;2.50;;;15.90;67.20;17.10;99630.00;;;;5071941;28;20222;-50
2022/11/21 01:43:24;;;;;;;2.40;2.20;;;15.90;67.20;17.10;99635.00;;;;5071687;28;20464;-50
2022/11/21 01:45:55;;;;;;;2.77;2.40;;;15.90;67.20;17.10;99636.00;;;;5071720;28;20778;-50
2022/11/21 01:49:01;;;;;;;2.60;2.40;;;15.90;67.20;17.10;99639.00;;;;5054782;28;20161;-50
2022/11/21 01:51:52;;;;;;;2.97;2.53;;;16.00;67.20;17.10;99637.00;;;;5057631;28;20192;-51
2022/11/21 01:54:22;;;;;;;2.50;2.30;;;16.00;67.30;17.10;99640.00;;;;5055257;28;20466;-49
2022/11/21 01:56:52;;;;;;;2.50;2.30;;;15.90;67.20;17.00;99634.00;;;;5054500;28;20165;-48
2022/11/21 01:59:38;;;;;;;2.90;2.60;;;15.90;67.30;17.10;99644.00;;;;5054790;28;20220;-49
2022/11/21 02:02:05;;;;;;;3.23;2.63;;;15.90;67.20;17.00;99645.00;;;;5055659;28;20182;-49
2022/11/21 02:04:31;;;;;;;2.53;2.33;;;15.90;67.30;17.00;99646.00;;;;5053712;28;20685;-51
2022/11/21 02:06:58;;;;;;;3.10;2.60;;;15.90;67.30;17.00;99643.00;;;;5054092;28;20239;-50
2022/11/21 02:09:24;;;;;;;2.53;2.33;;;15.90;67.30;17.00;99641.00;;;;5053936;28;20628;-49
2022/11/21 02:11:59;;;;;;;2.80;2.60;;;15.90;67.20;17.00;99639.00;;;;5053415;28;20263;-50
2022/11/21 02:14:25;;;;;;;2.70;2.50;;;15.80;67.10;17.00;99650.00;;;;5053223;28;20196;-50
2022/11/21 02:16:50;;;;;;;2.47;2.27;;;15.80;67.20;17.00;99637.00;;;;5071128;28;20182;-50
2022/11/21 02:19:27;;;;;;;2.53;2.33;;;15.90;67.40;17.00;99647.00;;;;5053305;28;20178;-49
2022/11/21 02:22:04;;;;;;;2.80;2.53;;;15.80;67.20;17.00;99654.00;;;;5053164;28;20189;-51
2022/11/21 02:24:38;;;;;;;2.57;2.30;;;15.80;67.20;17.00;99635.00;;;;5053643;28;20252;-51
2022/11/21 02:27:04;;;;;;;2.67;2.47;;;15.80;67.20;17.00;99652.00;;;;5053316;28;20252;-49
2022/11/21 02:29:30;;;;;;;2.73;2.50;;;15.80;67.20;17.00;99573.00;;;;5052899;28;20260;-49
2022/11/21 02:32:01;;;;;;;2.90;2.60;;;15.80;67.20;16.90;99657.00;;;;5052946;28;20227;-50
2022/11/21 02:34:27;;;;;;;2.77;2.53;;;15.80;68.00;16.90;99654.00;;;;5070872;28;20215;-50
2022/11/21 02:36:53;;;;;;;2.90;2.70;;;15.80;67.60;16.90;99656.00;;;;5070703;28;20622;-49
2022/11/21 02:39:29;;;;;;;3.00;2.70;;;15.80;67.90;16.90;99653.00;;;;5052300;28;20170;-49
2022/11/21 02:42:17;;;;;;;2.67;2.47;;;15.80;68.00;16.90;99653.00;;;;5052427;28;20196;-50
2022/11/21 02:45:06;;;;;;;2.73;2.53;;;15.70;67.90;16.80;99642.00;;;;5055497;28;20181;-49
2022/11/21 02:47:32;;;;;;;2.80;2.60;;;15.80;68.20;16.90;99649.00;;;;5054823;28;20158;-51
2022/11/21 02:50:02;;;;;;;2.83;2.63;;;15.80;68.20;16.90;99654.00;;;;5036187;28;20241;-49
2022/11/21 02:52:28;;;;;;;2.83;2.53;;;15.80;67.60;16.90;99649.00;;;;5052921;28;20177;-51
2022/11/21 02:54:54;;;;;;;2.90;2.70;;;15.80;67.90;16.80;99655.00;;;;5070446;28;20190;-49
2022/11/21 02:57:19;;;;;;;3.33;2.93;;;15.70;68.00;16.80;99649.00;;;;5070553;28;20638;-49
2022/11/21 02:59:45;;;;;;;2.90;2.60;;;15.70;68.30;16.80;99657.00;;;;5070484;28;20181;-51
2022/11/21 03:02:11;;;;;;;2.77;2.57;;;15.70;67.80;16.80;99652.00;;;;5070188;28;20204;-49
2022/11/21 03:04:36;;;;;;;3.20;2.90;;;15.70;67.90;16.80;99649.00;;;;5070411;28;20190;-51
2022/11/21 03:07:02;;;;;;;2.77;2.57;;;15.70;68.20;16.80;99649.00;;;;5070929;28;20169;-51
2022/11/21 03:09:28;;;;;;;2.80;2.60;;;15.70;68.00;16.80;99653.00;;;;5070342;28;20215;-50
2022/11/21 03:11:54;;;;;;;2.87;2.63;;;15.70;68.20;16.80;99653.00;;;;5070259;28;20227;-49
2022/11/21 03:14:19;;;;;;;3.30;3.00;;;15.70;68.10;16.80;99647.00;;;;5069965;28;20669;-49
2022/11/21 03:16:45;;;;;;;3.03;2.73;;;15.70;68.10;16.80;99647.00;;;;5070036;28;20193;-48
2022/11/21 03:19:11;;;;;;;2.90;2.70;;;15.70;67.90;16.80;99658.00;;;;5070307;28;20209;-52
2022/11/21 03:21:36;;;;;;;3.27;2.80;;;15.70;68.30;16.80;99657.00;;;;5070589;28;20272;-49
2022/11/21 03:24:02;;;;;;;3.27;2.80;;;15.60;68.20;16.80;99652.00;;;;5071480;28;20165;-49
2022/11/21 03:26:28;;;;;;;2.90;2.70;;;15.60;67.80;16.70;99649.00;;;;5070818;28;20193;-49
2022/11/21 03:28:54;;;;;;;2.87;2.67;;;15.60;67.80;16.80;99652.00;;;;5070629;28;20648;-49
2022/11/21 03:31:19;;;;;;;3.57;2.80;;;15.60;67.90;16.80;99659.00;;;;5069980;28;20547;-50
2022/11/21 03:33:45;;;;;;;2.97;2.67;;;15.60;68.00;16.80;99639.00;;;;5069889;28;20158;-50
2022/11/21 03:36:11;;;;;;;2.90;2.70;;;15.60;67.70;16.80;99653.00;;;;5069839;28;20646;-52
2022/11/21 03:38:36;;;;;;;4.17;2.50;;;15.60;68.40;16.80;99656.00;;;;5070026;28;20191;-50
2022/11/21 03:41:28;;;;;;;3.57;2.80;;;15.60;68.70;16.80;99652.00;;;;5069754;28;20311;-49
2022/11/21 03:44:00;;;;;;;2.80;2.60;;;15.60;68.00;16.70;99651.00;;;;5055763;28;20154;-50
2022/11/21 03:46:27;;;;;;;3.20;2.90;;;15.60;68.00;16.70;99650.00;;;;5069576;28;20269;-50
2022/11/21 03:48:53;;;;;;;4.40;3.13;;;15.60;68.90;16.70;99669.00;;;;5069636;28;20186;-50
2022/11/21 03:51:19;;;;;;;5.50;3.07;;;15.60;68.00;16.70;99666.00;;;;5050402;28;20682;-49
2022/11/21 03:53:44;;;;;;;3.37;3.07;;;15.60;68.00;16.70;99662.00;;;;5069822;28;20174;-48
2022/11/21 03:56:10;;;;;;;7.73;2.97;;;15.60;67.80;16.70;99671.00;;;;5069755;28;20193;-50
2022/11/21 03:58:36;;;;;;;4.13;3.30;;;15.60;67.80;16.70;99666.00;;;;5069512;28;20536;-50
2022/11/21 04:01:02;;;;;;;3.10;2.90;;;15.60;67.80;16.70;99672.00;;;;5069058;28;20208;-51
2022/11/21 04:03:28;;;;;;;4.17;3.00;;;15.60;67.80;16.70;99666.00;;;;5069351;28;20197;-49
2022/11/21 04:05:53;;;;;;;3.73;3.20;;;15.50;67.70;16.70;99664.00;;;;5069256;28;20182;-49
2022/11/21 04:08:19;;;;;;;3.30;3.00;;;15.50;67.60;16.70;99661.00;;;;5069424;28;20229;-49
2022/11/21 04:10:49;;;;;;;3.30;3.00;;;15.50;67.50;16.70;99651.00;;;;5068770;28;20169;-49
2022/11/21 04:13:14;;;;;;;3.43;2.90;;;15.60;67.50;16.60;99653.00;;;;5068895;28;20232;-49
2022/11/21 04:15:40;;;;;;;3.40;3.10;;;15.50;67.50;16.60;99662.00;;;;5069194;28;20197;-49
2022/11/21 04:18:06;;;;;;;3.37;3.10;;;15.50;67.40;16.60;99666.00;;;;5069548;28;20170;-50
2022/11/21 04:20:32;;;;;;;3.13;2.93;;;15.50;67.30;16.60;99659.00;;;;5069069;28;20168;-49
2022/11/21 04:22:58;;;;;;;3.13;2.83;;;15.50;67.30;16.60;99661.00;;;;5068622;28;20196;-48
2022/11/21 04:25:23;;;;;;;4.87;3.30;;;15.50;67.30;16.60;99664.00;;;;5068729;28;20243;-48
2022/11/21 04:27:49;;;;;;;3.50;3.20;;;15.50;67.30;16.60;99674.00;;;;5068883;28;20193;-49
2022/11/21 04:30:15;;;;;;;3.30;3.00;;;15.50;67.30;16.60;99667.00;;;;5069006;28;20162;-49
2022/11/21 04:32:40;;;;;;;3.50;3.20;;;15.50;67.40;16.60;99673.00;;;;5068485;28;20180;-50
2022/11/21 04:35:07;;;;;;;3.47;3.17;;;15.50;67.30;16.60;99676.00;;;;5068670;28;20739;-49
2022/11/21 04:37:32;;;;;;;5.77;3.60;;;15.40;67.30;16.60;99671.00;;;;5069081;28;20185;-50
2022/11/21 04:39:58;;;;;;;4.37;3.97;;;15.40;67.40;16.60;99675.00;;;;5070780;28;20169;-49
2022/11/21 04:42:24;;;;;;;5.17;4.20;;;15.50;67.60;16.60;99680.00;;;;5069703;28;20665;-50
2022/11/21 04:44:49;;;;;;;7.60;4.10;;;15.50;67.60;16.50;99669.00;;;;5050651;28;20181;-49
2022/11/21 04:47:15;;;;;;;5.57;4.00;;;15.40;67.40;16.50;99664.00;;;;5068809;28;20248;-48
2022/11/21 04:49:41;;;;;;;4.77;3.93;;;15.40;67.50;16.50;99668.00;;;;5056351;28;20163;-49
2022/11/21 04:52:06;;;;;;;6.40;3.87;;;15.40;67.50;16.50;99667.00;;;;5049001;28;20174;-49
2022/11/21 04:54:32;;;;;;;6.67;4.03;;;15.40;67.70;16.50;99663.00;;;;5049183;28;20567;-50
2022/11/21 04:56:58;;;;;;;8.63;4.10;;;15.40;67.80;16.50;99667.00;;;;5051095;28;20202;-49
2022/11/21 04:59:24;;;;;;;6.43;4.10;;;15.40;67.80;16.50;99652.00;;;;5049393;28;20257;-49
2022/11/21 05:01:49;;;;;;;8.30;4.07;;;15.40;67.70;16.50;99646.00;;;;5048983;28;20190;-50
2022/11/21 05:04:15;;;;;;;6.77;3.83;;;15.30;67.70;16.50;99655.00;;;;5048915;28;20220;-48
2022/11/21 05:06:41;;;;;;;4.90;4.07;;;15.30;67.90;16.50;99658.00;;;;5049048;28;20166;-49
2022/11/21 05:09:06;;;;;;;6.93;3.90;;;15.30;67.80;16.50;99666.00;;;;5049030;28;20214;-49
2022/11/21 05:14:16;;;;;;;8.50;4.00;;;15.30;67.80;16.50;99656.00;;;;5048706;28;20202;-50
2022/11/21 05:16:42;;;;;;;5.13;4.10;;;15.30;68.00;16.50;99652.00;;;;5048621;28;20178;-50
2022/11/21 05:19:08;;;;;;;5.70;3.80;;;15.30;67.90;16.50;99650.00;;;;5048632;28;20550;-52
2022/11/21 05:21:34;;;;;;;4.83;4.03;;;15.30;68.10;16.40;99652.00;;;;5048775;28;20194;-50
2022/11/21 05:24:00;;;;;;;5.37;4.00;;;15.30;68.10;16.50;99650.00;;;;5048975;28;20255;-51
2022/11/21 05:26:26;;;;;;;5.87;4.17;;;15.30;68.00;16.30;99655.00;;;;5048639;28;20186;-50
2022/11/21 05:28:51;;;;;;;6.23;4.03;;;15.20;67.80;16.40;99641.00;;;;5048830;28;20166;-49
2022/11/21 05:31:17;;;;;;;5.40;4.27;;;15.30;68.00;16.40;99643.00;;;;5048113;28;20634;-50
2022/11/21 05:33:43;;;;;;;5.33;4.20;;;15.30;68.00;16.40;99651.00;;;;5049107;28;20213;-49
2022/11/21 05:36:09;;;;;;;4.70;3.90;;;15.30;68.20;16.40;99647.00;;;;5048714;28;20186;-49
2022/11/21 05:38:34;;;;;;;5.87;4.00;;;15.20;67.90;16.40;99647.00;;;;5048702;28;20179;-49
2022/11/21 05:41:00;;;;;;;5.77;3.87;;;15.20;67.80;16.40;99649.00;;;;5048506;28;20174;-49
2022/11/21 05:46:15;;;;;;;4.97;4.17;;;15.20;67.80;16.40;99640.00;;;;5048710;28;20256;-49
2022/11/21 05:48:41;;;;;;;4.97;3.83;;;15.20;68.00;16.40;99634.00;;;;5031548;28;20234;-49
2022/11/21 05:51:07;;;;;;;4.17;3.70;;;15.20;67.90;16.40;99647.00;;;;5047833;28;20170;-49
2022/11/21 05:53:33;;;;;;;4.90;4.03;;;15.20;67.80;16.40;99657.00;;;;5048945;28;20221;-50
2022/11/21 05:56:10;;;;;;;5.33;3.97;;;15.20;67.70;16.30;99653.00;;;;5030979;28;20214;-49
2022/11/21 05:58:36;;;;;;;4.70;3.93;;;15.20;67.80;16.30;99641.00;;;;5048833;28;20604;-51
2022/11/21 06:01:03;;;;;;;5.20;4.40;;;15.20;67.70;16.30;99636.00;;;;5039479;28;20186;-49
2022/11/21 06:03:32;;;;;;;6.00;4.20;;;15.20;67.70;16.30;99624.00;;;;5068090;28;20246;-51
2022/11/21 06:06:13;;;;;;;4.17;3.77;;;15.20;67.70;16.30;99649.00;;;;5050855;28;20332;-48
2022/11/21 06:08:43;;;;;;;4.60;4.20;;;15.20;67.80;16.30;99639.00;;;;5068465;28;20158;-49
2022/11/21 06:11:14;;;;;;;4.27;3.87;;;15.20;67.70;16.30;99639.00;;;;5068133;28;20166;-49
2022/11/21 06:13:40;;;;;;;4.40;4.00;;;15.20;68.00;16.30;99633.00;;;;5068335;28;20173;-48
2022/11/21 06:16:11;;;;;;;4.33;3.87;;;15.10;67.70;16.30;99644.00;;;;5070991;28;20317;-49
2022/11/21 06:18:39;;;;;;;4.80;3.80;;;15.20;67.70;16.00;99636.00;;;;5071656;28;20173;-50
2022/11/21 06:21:09;;;;;;;4.57;3.77;;;15.10;67.60;16.30;99618.00;;;;5053368;28;20169;-48
2022/11/21 06:23:35;;;;;;;4.60;4.20;;;15.10;67.60;16.30;99623.00;;;;5053725;28;20415;-49
2022/11/21 06:26:03;;;;;;;4.63;4.10;;;15.10;67.80;16.30;99623.00;;;;5071385;28;20306;-49
2022/11/21 06:28:35;;;;;;;4.30;3.90;;;15.10;67.80;16.30;99628.00;;;;5072028;28;20166;-49
2022/11/21 06:31:17;;;;;;;4.50;4.10;;;15.10;67.80;16.20;99625.00;;;;5071200;28;20223;-49
2022/11/21 06:33:43;;;;;;;5.13;4.20;;;15.10;67.80;16.20;99626.00;;;;5071742;28;20645;-50
2022/11/21 06:36:11;;;;;;;4.23;3.90;;;15.10;67.70;16.20;99628.00;;;;5054001;28;20189;-49
2022/11/21 06:38:37;;;;;;;5.03;3.90;;;15.10;67.70;16.20;99623.00;;;;5071338;28;20231;-50
2022/11/21 06:41:04;;;;;;;4.40;4.00;;;15.00;67.50;16.20;99625.00;;;;5071464;28;20185;-50
2022/11/21 06:43:30;;;;;;;5.20;3.90;;;15.10;67.60;16.20;99620.00;;;;5071091;28;20205;-49
2022/11/21 06:45:57;;;;;;;4.80;4.30;;;15.00;67.50;16.20;99628.00;;;;5071127;28;20186;-49
2022/11/21 06:48:23;;;;;;;5.20;4.60;;;15.00;67.60;16.20;99631.00;;;;5070981;28;20157;-49
2022/11/21 06:50:49;;;;;;;4.27;3.87;;;15.00;67.50;16.20;99626.00;;;;5071331;28;20245;-49
2022/11/21 06:53:14;;;;;;;4.00;3.70;;;15.00;67.50;16.20;99623.00;;;;5071308;28;20231;-49
2022/11/21 06:55:40;;;;;;;4.43;4.03;;;15.00;67.50;16.20;99626.00;;;;5071478;28;20197;-49
2022/11/21 06:58:06;;;;;;;3.90;3.60;;;15.00;67.60;16.20;99630.00;;;;5070855;28;20201;-51
2022/11/21 07:00:31;;;;;;;4.50;4.10;;;15.00;67.60;16.10;99645.00;;;;5070947;28;20177;-49
2022/11/21 07:03:01;;;;;;;4.63;4.20;;;15.00;67.60;16.10;99638.00;;;;5070545;28;20213;-48
2022/11/21 07:05:27;;;;;;;4.40;4.00;;;15.00;67.60;16.10;99634.00;;;;5070971;28;20593;-49
2022/11/21 07:08:00;;;;;;;4.33;3.90;;;15.00;67.70;16.10;99633.00;;;;5070620;28;20170;-51
2022/11/21 07:10:26;;;;;;;4.40;4.00;;;15.00;67.60;16.10;99628.00;;;;5070732;28;20169;-49
2022/11/21 07:15:39;;;;;;;4.47;4.07;;;15.00;67.70;16.10;99635.00;;;;5055990;28;20231;-50
2022/11/21 07:18:05;;;;;;;4.70;4.30;;;14.90;67.70;16.10;99633.00;;;;5072068;28;20209;-50
2022/11/21 07:20:31;;;;;;;4.40;4.00;;;14.90;67.50;16.10;99641.00;;;;5072746;28;20260;-50
2022/11/21 07:22:56;;;;;;;4.60;4.20;;;14.90;67.50;16.10;99628.00;;;;5070981;28;20276;-50
2022/11/21 07:25:22;;;;;;;4.53;4.13;;;14.90;67.60;16.10;99615.00;;;;5070775;28;20662;-49
2022/11/21 07:27:48;;;;;;;4.20;3.90;;;14.90;67.60;16.10;99629.00;;;;5070204;28;20172;-48
2022/11/21 07:30:14;;;;;;;4.30;3.90;;;14.90;67.50;16.10;99640.00;;;;5070895;28;20206;-51
2022/11/21 07:32:40;;;;;;;4.40;4.00;;;14.90;67.70;16.10;99635.00;;;;5070392;28;20630;-50
2022/11/21 07:35:06;;;;;;;4.70;4.30;;;14.90;67.50;16.10;99634.00;;;;5070345;28;20808;-49
2022/11/21 07:37:32;;;;;;;4.77;4.27;;;14.90;67.50;16.00;99618.00;;;;5069874;28;20173;-49
2022/11/21 07:39:58;;;;;;;4.43;4.03;;;14.90;67.60;16.10;99629.00;;;;5052564;28;20657;-49
2022/11/21 07:42:23;;;;;;;4.17;3.77;;;14.90;67.50;16.00;99632.00;;;;5070418;28;20194;-50
2022/11/21 07:44:49;;;;;;;4.10;3.70;;;14.80;67.50;16.00;99631.00;;;;5070551;28;20182;-50
2022/11/21 07:47:15;;;;;;;5.43;3.83;;;14.90;67.60;16.00;99625.00;;;;5069764;28;20165;-50
2022/11/21 07:49:41;;;;;;;4.23;3.83;;;14.90;68.00;16.00;99623.00;;;;5070051;28;20184;-48
2022/11/21 07:52:07;;;;;;;4.50;4.10;;;14.80;67.80;15.80;99626.00;;;;5069414;28;20634;-49
2022/11/21 07:54:32;;;;;;;4.27;3.87;;;14.80;67.70;16.00;99618.00;;;;5069619;28;20216;-49
2022/11/21 07:56:58;;;;;;;4.40;4.00;;;14.80;67.60;16.00;99622.00;;;;5069738;28;20251;-48
2022/11/21 07:59:24;;;;;;;4.40;4.00;;;14.80;67.50;16.00;99621.00;;;;5069643;28;20593;-51
2022/11/21 08:01:51;;;;;;;4.40;4.00;;;14.80;67.70;16.00;99628.00;;;;5069331;28;20198;-51
2022/11/21 08:04:16;;;;;;;4.20;3.83;;;14.80;67.60;16.00;99624.00;;;;5069691;28;20174;-49
2022/11/21 08:06:42;;;;;;;4.53;3.97;;;14.80;67.60;16.00;99626.00;;;;5069657;28;20165;-49
2022/11/21 08:09:08;;;;;;;4.53;4.13;;;14.80;67.60;16.00;99632.00;;;;5070262;28;20185;-50
2022/11/21 08:11:35;;;;;;;4.77;4.00;;;14.80;67.50;16.00;99619.00;;;;5069140;28;20572;-51
2022/11/21 08:14:01;;;;;;;4.40;4.00;;;14.80;67.40;16.00;99612.00;;;;5070960;28;20231;-49
2022/11/21 08:16:28;;;;;;;4.60;3.93;;;14.80;67.40;16.00;99607.00;;;;5070622;28;20205;-49
2022/11/21 08:18:54;;;;;;;4.73;4.30;;;14.80;67.60;16.00;99614.00;;;;5070134;28;20237;-50
2022/11/21 08:21:19;;;;;;;4.40;4.00;;;14.80;67.80;15.70;99600.00;;;;5068824;28;20257;-49
2022/11/21 08:23:45;;;;;;;6.60;3.97;;;14.80;67.40;16.00;99590.00;;;;5065870;28;20244;-49
2022/11/21 08:26:12;;;;;;;4.90;4.40;;;14.80;68.20;16.00;99581.00;;;;5012381;28;20241;-49
2022/11/21 08:28:38;;;;;;;4.30;3.90;;;14.80;67.90;16.00;99591.00;;;;5068528;28;20177;-51
2022/11/21 08:31:04;;;;;;;5.80;4.00;;;14.90;67.90;16.00;99594.00;;;;5069014;28;20174;-48
2022/11/21 08:33:30;;;;;;;4.27;3.87;;;15.00;67.80;16.00;99600.00;;;;5068967;28;20174;-49
2022/11/21 08:35:56;;;;;;;4.37;3.93;;;15.10;67.60;16.10;99608.00;;;;5068782;28;20197;-49
2022/11/21 08:38:22;;;;;;;4.40;3.60;;;15.20;67.30;16.10;99609.00;;;;5067038;28;20468;-49
2022/11/21 08:42:01;;;;;;;7.30;3.90;;;15.40;67.20;16.20;99599.00;;;;5069072;28;20178;-48
2022/11/21 08:43:33;;;;;;;4.00;3.70;;;15.50;66.90;16.30;99596.00;;;;5052147;28;20224;-50
2022/11/21 08:45:59;;;;;;;3.93;3.57;;;15.70;66.70;16.40;99595.00;;;;5048451;28;20194;-51
2022/11/21 08:48:24;;;;;;;3.70;3.40;;;15.80;66.40;16.50;99597.00;;;;5056838;28;20254;-50
2022/11/21 08:50:50;;;;;;;7.20;3.60;;;15.90;66.20;16.60;99607.00;;;;5068637;28;20542;-48
2022/11/21 08:53:16;;;;;;;5.73;3.40;;;16.10;66.40;16.70;99607.00;;;;5067628;28;20173;-49
2022/11/21 08:55:42;;;;;;;8.53;4.17;;;16.20;66.50;16.80;99612.00;;;;5068191;28;20189;-53
2022/11/21 08:58:07;;;;;;;8.10;3.40;;;16.40;66.60;16.90;99605.00;;;;5067792;28;20178;-48
2022/11/21 09:00:33;;;;;;;9.37;4.00;;;16.60;65.90;17.00;99600.00;;;;5067239;28;20165;-51
2022/11/21 09:03:03;;;;;;;8.33;3.50;;;16.80;66.00;17.10;99596.00;;;;5067833;28;20208;-51
2022/11/21 09:05:29;;;;;;;8.73;3.87;;;16.90;65.60;17.30;99592.00;;;;5049896;28;20225;-52
2022/11/21 09:07:56;;;;;;;6.20;3.80;;;17.10;65.30;17.40;99590.00;;;;5068120;28;20255;-50
2022/11/21 09:10:22;;;;;;;6.63;3.40;;;17.30;65.10;17.50;99598.00;;;;5068619;28;20178;-50
2022/11/21 09:12:48;;;;;;;7.97;3.67;;;17.40;64.80;17.60;99598.00;;;;5069147;28;20176;-50
2022/11/21 09:18:04;;;;;;;6.63;3.10;;;17.60;64.70;17.90;99582.00;;;;5069090;28;20273;-49
2022/11/21 09:20:31;;;;;;;10.47;3.87;;;17.70;64.40;18.00;99586.00;;;;5068816;28;20170;-50
2022/11/21 09:22:57;;;;;;;9.73;3.63;;;17.80;64.50;18.00;99570.00;;;;5051024;28;20885;-53
2022/11/21 09:25:23;;;;;;;11.03;3.70;;;17.90;64.70;18.10;99572.00;;;;5034561;28;20208;-50
2022/11/21 09:27:48;;;;;;;7.53;3.47;;;17.90;64.60;18.20;99568.00;;;;5068677;28;20697;-49
2022/11/21 09:30:15;;;;;;;10.80;3.70;;;18.00;64.90;18.30;99557.00;;;;5068547;28;20175;-48
2022/11/21 09:32:41;;;;;;;9.47;3.53;;;18.00;65.20;18.30;99556.00;;;;5011948;28;20208;-49
2022/11/21 09:35:07;;;;;;;7.87;3.30;;;18.00;65.40;18.40;99556.00;;;;5066014;28;20233;-50
2022/11/21 09:37:37;;;;;;;6.57;3.30;;;17.90;65.30;18.40;99561.00;;;;5056165;28;20231;-49
2022/11/21 09:40:03;;;;;;;12.37;3.53;;;18.00;65.40;18.50;99555.00;;;;5068566;28;20210;-50
2022/11/21 09:42:51;;;;;;;6.83;3.57;;;17.90;65.40;18.50;99557.00;;;;5067767;28;20201;-49
2022/11/21 09:45:36;;;;;;;15.30;3.70;;;18.00;65.50;18.50;99554.00;;;;5050338;28;20604;-49
2022/11/21 09:48:10;;;;;;;14.97;3.40;;;17.90;65.50;18.50;99555.00;;;;5049862;28;20664;-49
2022/11/21 09:50:43;;;;;;;11.43;3.60;;;17.90;65.80;18.50;99551.00;;;;5038283;28;20164;-50
2022/11/21 09:53:16;;;;;;;8.17;3.40;;;17.90;65.90;18.50;99557.00;;;;5038490;28;20167;-50
2022/11/21 09:55:57;;;;;;;9.23;3.50;;;17.90;66.20;18.50;99552.00;;;;5038873;28;20223;-49
2022/11/21 09:58:44;;;;;;;10.47;3.50;;;17.90;67.20;18.50;99552.00;;;;5055774;28;20176;-49
2022/11/21 10:01:14;;;;;;;9.57;3.67;;;17.90;69.10;18.50;99543.00;;;;5040748;28;20193;-53
2022/11/21 10:03:48;;;;;;;8.67;3.37;;;17.80;69.10;18.50;99537.00;;;;5037865;28;20199;-48
2022/11/21 10:06:21;;;;;;;8.67;3.87;;;17.80;69.70;18.50;99531.00;;;;5055728;28;20602;-49
2022/11/21 10:08:53;;;;;;;9.33;4.13;;;17.80;70.50;18.50;99541.00;;;;5071821;28;20179;-49
2022/11/21 10:12:36;;;;;;;9.87;3.80;;;17.70;70.30;18.50;99528.00;;;;5071865;28;20166;-51
2022/11/21 10:15:26;;;;;;;13.97;3.87;;;17.80;70.10;18.50;99527.00;;;;5072008;28;20282;-50
2022/11/21 10:18:25;;;;;;;10.43;3.60;;;17.70;70.00;18.50;99522.00;;;;5064080;28;20193;-50
2022/11/21 10:21:47;;;;;;;13.30;3.93;;;17.60;69.80;18.50;99517.00;;;;5051262;28;20183;-51
2022/11/21 10:24:33;;;;;;;6.33;3.37;;;17.70;70.00;18.40;99519.00;;;;5057370;28;20209;-51
2022/11/21 10:27:06;;;;;;;5.53;3.50;;;17.60;69.80;18.40;99513.00;;;;5038502;28;20180;-49
2022/11/21 10:29:42;;;;;;;8.37;3.60;;;17.50;69.80;18.40;99499.00;;;;5053475;28;20176;-50
2022/11/21 10:32:21;;;;;;;5.97;3.60;;;17.60;69.80;18.40;99504.00;;;;4986634;28;20166;-50
2022/11/21 10:34:47;;;;;;;8.80;3.60;;;17.60;69.90;18.30;99510.00;;;;5050121;28;20192;-51
2022/11/21 10:37:29;;;;;;;5.97;3.30;;;17.50;69.70;18.30;99504.00;;;;5050145;28;20700;-50
2022/11/21 10:39:55;;;;;;;5.97;3.10;;;17.50;69.60;18.30;99507.00;;;;5050383;28;20168;-49
2022/11/21 10:42:52;;;;;;;7.47;3.37;;;17.40;69.30;18.30;99491.00;;;;5045094;28;20191;-51
2022/11/21 10:45:18;;;;;;;5.07;3.20;;;17.40;69.30;18.30;99480.00;;;;5055617;28;20184;-50
2022/11/21 10:47:46;;;;;;;3.90;3.23;;;17.30;69.20;18.30;99481.00;;;;5071490;28;20211;-49
2022/11/21 10:50:27;;;;;;;7.20;3.50;;;17.30;69.20;18.30;99481.00;;;;5053117;28;20542;-49
2022/11/21 10:56:06;;;;;;;7.03;4.30;;;17.30;69.20;18.20;99470.00;;;;5056471;28;20211;-50
2022/11/21 10:58:43;;;;;;;8.63;4.90;;;17.00;68.00;18.10;99463.00;;;;5058949;28;20183;-52
2022/11/21 11:01:20;;;;;;;7.53;4.10;;;16.80;66.20;18.00;99464.00;;;;5050046;28;20750;-51
2022/11/21 11:03:46;;;;;;;8.93;4.60;;;16.70;65.90;18.00;99461.00;;;;5057812;28;20283;-51
2022/11/21 11:06:12;;;;;;;6.33;4.20;;;16.70;66.10;17.90;99465.00;;;;5052358;28;20219;-52
2022/11/21 11:08:50;;;;;;;6.80;4.60;;;16.60;66.60;17.90;99454.00;;;;5052717;28;20177;-51
2022/11/21 11:11:18;;;;;;;6.67;4.70;;;16.60;65.10;17.80;99449.00;;;;5070395;28;20165;-52
2022/11/21 11:14:00;;;;;;;4.47;3.80;;;16.60;65.20;17.80;99414.00;;;;5052921;28;20178;-51
2022/11/21 11:16:27;;;;;;;6.80;4.63;;;16.60;64.50;17.80;99437.00;;;;5053316;28;20209;-51